createdAt,value
2022-10-12T00:02:06.792Z,4.58
2022-10-12T00:04:35.545Z,4.56
2022-10-12T00:07:18.618Z,4.53
2022-10-12T00:10:00.920Z,4.53
2022-10-12T00:12:29.638Z,4.52
2022-10-12T00:15:13.523Z,4.51
2022-10-12T00:17:56.051Z,4.48
2022-10-12T00:20:24.988Z,4.48
2022-10-12T00:22:54.002Z,4.46
2022-10-12T00:25:38.661Z,4.45
2022-10-12T00:28:21.172Z,4.43
2022-10-12T00:30:50.609Z,4.43
2022-10-12T00:33:19.618Z,4.44
2022-10-12T00:36:12.649Z,4.43
2022-10-12T00:38:56.749Z,4.42
2022-10-12T00:41:29.697Z,4.40
2022-10-12T00:44:44.456Z,4.39
2022-10-12T00:47:34.805Z,4.39
2022-10-12T00:50:11.349Z,4.40
2022-10-12T00:53:14.588Z,4.40
2022-10-12T00:56:01.624Z,4.41
2022-10-12T00:58:35.097Z,4.42
2022-10-12T01:01:05.457Z,4.43
2022-10-12T01:03:36.546Z,4.44
2022-10-12T01:06:20.178Z,4.44
2022-10-12T01:09:04.168Z,4.41
2022-10-12T01:11:46.500Z,4.37
2022-10-12T01:14:28.966Z,4.37
2022-10-12T01:17:20.267Z,4.36
2022-10-12T01:20:27.708Z,4.37
2022-10-12T01:23:16.206Z,4.37
2022-10-12T01:26:23.087Z,4.37
2022-10-12T01:28:55.166Z,4.36
2022-10-12T01:31:39.371Z,4.35
2022-10-12T01:34:48.065Z,4.34
2022-10-12T01:38:08.545Z,4.34
2022-10-12T01:41:09.821Z,4.36
2022-10-12T01:43:53.151Z,4.39
2022-10-12T01:46:21.628Z,4.41
2022-10-12T01:49:04.165Z,4.42
2022-10-12T01:52:04.440Z,4.40
2022-10-12T01:54:52.812Z,4.39
2022-10-12T01:58:12.811Z,4.35
2022-10-12T02:01:24.520Z,4.31
2022-10-12T02:04:15.284Z,4.28
2022-10-12T02:07:05.996Z,4.25
2022-10-12T02:09:37.890Z,4.22
2022-10-12T02:12:29.490Z,4.18
2022-10-12T02:15:03.419Z,4.13
2022-10-12T02:17:49.905Z,4.09
2022-10-12T02:20:23.432Z,4.06
2022-10-12T02:22:53.747Z,4.03
2022-10-12T02:25:26.907Z,3.98
2022-10-12T02:28:02.870Z,3.96
2022-10-12T02:30:42.874Z,3.95
2022-10-12T02:33:35.325Z,3.94
2022-10-12T02:36:12.004Z,3.93
2022-10-12T02:39:05.811Z,3.93
2022-10-12T02:41:41.352Z,3.92
2022-10-12T02:44:14.233Z,3.91
2022-10-12T02:46:45.806Z,3.90
2022-10-12T02:49:30.276Z,3.86
2022-10-12T02:52:12.593Z,3.85
2022-10-12T02:54:42.170Z,3.84
2022-10-12T02:57:24.665Z,3.84
2022-10-12T03:00:08.440Z,3.83
2022-10-12T03:02:37.248Z,3.82
2022-10-12T03:05:19.565Z,3.81
2022-10-12T03:07:48.336Z,3.80
2022-10-12T03:10:31.151Z,3.79
2022-10-12T03:13:13.658Z,3.76
2022-10-12T03:15:42.516Z,3.75
2022-10-12T03:18:11.392Z,3.73
2022-10-12T03:20:53.814Z,3.72
2022-10-12T03:23:36.276Z,3.71
2022-10-12T03:26:18.890Z,3.68
2022-10-12T03:29:01.625Z,3.67
2022-10-12T03:31:30.717Z,3.65
2022-10-12T03:34:13.143Z,3.62
2022-10-12T03:36:56.013Z,3.59
2022-10-12T03:39:25.117Z,3.59
2022-10-12T03:41:54.162Z,3.59
2022-10-12T03:44:23.054Z,3.58
2022-10-12T03:46:52.087Z,3.58
2022-10-12T03:49:21.821Z,3.57
2022-10-12T03:52:04.706Z,3.57
2022-10-12T03:54:33.770Z,3.55
2022-10-12T03:57:02.476Z,3.52
2022-10-12T03:59:45.436Z,3.50
2022-10-12T04:02:27.926Z,3.48
2022-10-12T04:04:56.647Z,3.48
2022-10-12T04:07:25.910Z,3.48
2022-10-12T04:10:08.563Z,3.50
2022-10-12T04:12:50.987Z,3.50
2022-10-12T04:17:49.628Z,3.48
2022-10-12T04:20:18.728Z,3.47
2022-10-12T04:23:01.212Z,3.45
2022-10-12T04:25:43.673Z,3.41
2022-10-12T04:28:26.159Z,3.40
2022-10-12T04:30:55.131Z,3.40
2022-10-12T04:33:24.176Z,3.38
2022-10-12T04:35:53.254Z,3.38
2022-10-12T04:38:35.713Z,3.37
2022-10-12T04:41:18.073Z,3.36
2022-10-12T04:43:46.964Z,3.33
2022-10-12T04:46:29.356Z,3.30
2022-10-12T04:49:12.329Z,3.29
2022-10-12T04:51:41.064Z,3.29
2022-10-12T04:54:23.783Z,3.28
2022-10-12T04:57:06.309Z,3.28
2022-10-12T04:59:35.034Z,3.28
2022-10-12T05:02:03.925Z,3.30
2022-10-12T05:07:01.936Z,3.30
2022-10-12T05:09:44.337Z,3.29
2022-10-12T05:12:13.312Z,3.27
2022-10-12T05:14:55.616Z,3.26
2022-10-12T05:17:38.795Z,3.26
2022-10-12T05:20:21.904Z,3.28
2022-10-12T05:22:51.433Z,3.29
2022-10-12T05:25:20.419Z,3.29
2022-10-12T05:28:03.031Z,3.28
2022-10-12T05:30:45.313Z,3.27
2022-10-12T05:33:14.097Z,3.29
2022-10-12T05:35:47.477Z,3.30
2022-10-12T05:38:31.269Z,3.32
2022-10-12T05:41:01.154Z,3.36
2022-10-12T05:43:43.536Z,3.39
2022-10-12T05:46:25.958Z,3.45
2022-10-12T05:48:54.744Z,3.48
2022-10-12T05:51:28.559Z,3.52
2022-10-12T05:54:11.049Z,3.58
2022-10-12T05:56:39.925Z,3.59
2022-10-12T05:59:09.073Z,3.61
2022-10-12T06:01:51.445Z,3.63
2022-10-12T06:04:20.369Z,3.66
2022-10-12T06:07:02.764Z,3.69
2022-10-12T06:09:31.684Z,3.72
2022-10-12T06:12:01.035Z,3.75
2022-10-12T06:14:29.787Z,3.80
2022-10-12T06:17:12.222Z,3.85
2022-10-12T06:19:41.142Z,3.91
2022-10-12T06:22:23.733Z,3.96
2022-10-12T06:24:52.482Z,3.99
2022-10-12T06:27:35.153Z,4.06
2022-10-12T06:30:04.900Z,4.11
2022-10-12T06:32:47.367Z,4.18
2022-10-12T06:35:29.751Z,4.25
2022-10-12T06:38:12.153Z,4.31
2022-10-12T06:40:54.512Z,4.37
2022-10-12T06:43:36.873Z,4.46
2022-10-12T06:46:05.987Z,4.54
2022-10-12T06:48:34.753Z,4.64
2022-10-12T06:51:17.301Z,4.73
2022-10-12T06:53:59.709Z,4.81
2022-10-12T06:56:28.707Z,4.90
2022-10-12T06:59:14.315Z,5.00
2022-10-12T07:01:43.288Z,5.11
2022-10-12T07:04:25.723Z,5.21
2022-10-12T07:06:54.800Z,5.33
2022-10-12T07:09:37.144Z,5.47
2022-10-12T07:12:19.483Z,5.59
2022-10-12T07:14:48.222Z,5.71
2022-10-12T07:17:17.326Z,5.82
2022-10-12T07:19:46.087Z,5.90
2022-10-12T07:22:14.686Z,5.99
2022-10-12T07:24:43.988Z,6.10
2022-10-12T07:27:26.588Z,6.22
2022-10-12T07:29:55.708Z,6.33
2022-10-12T07:32:24.301Z,6.46
2022-10-12T07:35:06.965Z,6.60
2022-10-12T07:37:50.005Z,6.75
2022-10-12T07:40:32.844Z,6.91
2022-10-12T07:43:16.867Z,7.05
2022-10-12T07:45:59.792Z,7.23
2022-10-12T07:48:29.115Z,7.37
2022-10-12T07:51:04.538Z,7.53
2022-10-12T07:53:39.951Z,7.69
2022-10-12T07:56:23.037Z,7.84
2022-10-12T07:58:54.763Z,7.98
2022-10-12T08:01:25.605Z,8.13
2022-10-12T08:04:08.300Z,8.24
2022-10-12T08:06:37.326Z,8.36
2022-10-12T08:09:06.383Z,8.49
2022-10-12T08:11:48.730Z,8.61
2022-10-12T08:14:17.531Z,8.70
2022-10-12T08:17:00.083Z,8.84
2022-10-12T08:19:32.985Z,8.95
2022-10-12T08:22:04.382Z,9.02
2022-10-12T08:24:35.392Z,9.07
2022-10-12T08:27:04.669Z,9.14
2022-10-12T08:29:33.496Z,9.20
2022-10-12T08:32:02.395Z,9.33
2022-10-12T08:34:31.514Z,9.48
2022-10-12T08:37:01.158Z,9.60
2022-10-12T08:39:43.722Z,9.69
2022-10-12T08:42:37.255Z,9.73
2022-10-12T08:45:44.590Z,9.81
2022-10-12T08:48:24.472Z,9.91
2022-10-12T08:54:06.142Z,10.13
2022-10-12T08:56:49.251Z,10.29
2022-10-12T08:59:19.253Z,10.38
2022-10-12T09:02:40.474Z,10.44
2022-10-12T09:05:32.485Z,10.58
2022-10-12T09:08:53.024Z,10.75
2022-10-12T09:11:43.751Z,10.96
2022-10-12T09:14:33.624Z,11.16
2022-10-12T09:17:12.324Z,11.23
2022-10-12T09:19:43.459Z,11.41
2022-10-12T09:22:29.269Z,11.59
2022-10-12T09:24:59.719Z,11.72
2022-10-12T09:27:32.138Z,11.82
2022-10-12T09:30:06.146Z,11.80
2022-10-12T09:32:56.213Z,11.80
2022-10-12T09:35:47.705Z,11.92
2022-10-12T09:38:30.059Z,12.01
2022-10-12T09:41:30.702Z,12.16
2022-10-12T09:44:03.821Z,12.38
2022-10-12T09:46:42.187Z,12.52
2022-10-12T09:49:11.013Z,12.63
2022-10-12T09:51:40.100Z,12.76
2022-10-12T09:54:19.663Z,12.95
2022-10-12T09:57:03.545Z,13.06
2022-10-12T09:59:46.427Z,13.21
2022-10-12T10:02:24.266Z,13.31
2022-10-12T10:04:54.673Z,13.25
2022-10-12T10:07:37.674Z,13.04
2022-10-12T10:10:16.065Z,12.84
2022-10-12T10:13:01.729Z,12.70
2022-10-12T10:15:39.591Z,12.57
2022-10-12T10:18:25.873Z,12.46
2022-10-12T10:21:11.827Z,12.45
2022-10-12T10:23:51.758Z,12.46
2022-10-12T10:26:24.149Z,12.54
2022-10-12T10:29:15.886Z,12.54
2022-10-12T10:31:46.686Z,12.63
2022-10-12T10:34:18.837Z,12.65
2022-10-12T10:37:01.287Z,12.68
2022-10-12T10:39:46.977Z,12.76
2022-10-12T10:42:32.936Z,12.83
2022-10-12T10:45:08.916Z,12.99
2022-10-12T10:47:47.209Z,13.03
2022-10-12T10:50:39.997Z,13.12
2022-10-12T10:53:26.646Z,13.17
2022-10-12T10:56:25.287Z,13.22
2022-10-12T10:58:56.754Z,13.28
2022-10-12T11:01:44.605Z,13.48
2022-10-12T11:04:35.712Z,13.68
2022-10-12T11:07:17.193Z,13.53
2022-10-12T11:09:50.688Z,13.44
2022-10-12T11:12:36.245Z,13.58
2022-10-12T11:15:16.117Z,13.79
2022-10-12T11:17:50.493Z,13.88
2022-10-12T11:21:13.565Z,13.89
2022-10-12T11:24:06.487Z,14.01
2022-10-12T11:26:45.427Z,14.15
2022-10-12T11:29:28.630Z,14.22
2022-10-12T11:32:08.398Z,14.29
2022-10-12T11:34:55.738Z,14.37
2022-10-12T11:37:36.876Z,14.44
2022-10-12T11:40:23.566Z,14.56
2022-10-12T11:42:58.218Z,14.62
2022-10-12T11:45:32.511Z,14.63
2022-10-12T11:48:36.178Z,14.59
2022-10-12T11:51:06.236Z,14.59
2022-10-12T11:53:53.640Z,14.46
2022-10-12T11:56:43.815Z,14.52
2022-10-12T11:59:31.309Z,14.69
2022-10-12T12:02:38.302Z,14.85
2022-10-12T12:05:17.131Z,14.90
2022-10-12T12:07:55.572Z,14.83
2022-10-12T12:10:38.693Z,14.85
2022-10-12T12:13:24.528Z,14.74
2022-10-12T12:15:53.278Z,14.67
2022-10-12T12:18:24.940Z,14.56
2022-10-12T12:21:10.403Z,14.37
2022-10-12T12:23:56.552Z,14.17
2022-10-12T12:26:48.195Z,14.05
2022-10-12T12:29:31.382Z,13.91
2022-10-12T12:32:13.817Z,13.75
2022-10-12T12:35:00.047Z,13.60
2022-10-12T12:37:43.170Z,13.45
2022-10-12T12:40:24.604Z,13.36
2022-10-12T12:43:29.080Z,13.26
2022-10-12T12:46:13.972Z,13.19
2022-10-12T12:48:58.069Z,13.15
2022-10-12T12:51:43.488Z,13.14
2022-10-12T12:54:21.344Z,13.14
2022-10-12T12:57:08.857Z,13.10
2022-10-12T13:00:11.802Z,13.11
2022-10-12T13:03:01.715Z,13.10
2022-10-12T13:05:49.892Z,13.11
2022-10-12T13:08:50.850Z,13.14
2022-10-12T13:11:37.989Z,13.16
2022-10-12T13:14:44.666Z,13.20
2022-10-12T13:17:33.005Z,13.22
2022-10-12T13:20:19.145Z,13.23
2022-10-12T13:22:52.589Z,13.23
2022-10-12T13:25:46.347Z,13.26
2022-10-12T13:28:33.008Z,13.38
2022-10-12T13:31:14.050Z,13.54
2022-10-12T13:34:22.041Z,13.61
2022-10-12T13:37:03.339Z,13.55
2022-10-12T13:39:40.235Z,13.48
2022-10-12T13:42:12.409Z,13.42
2022-10-12T13:44:42.526Z,13.34
2022-10-12T13:47:33.095Z,13.34
2022-10-12T13:50:02.512Z,13.32
2022-10-12T13:52:34.512Z,13.29
2022-10-12T13:55:15.849Z,13.27
2022-10-12T13:57:58.210Z,13.29
2022-10-12T14:00:47.911Z,13.37
2022-10-12T14:03:16.743Z,13.52
2022-10-12T14:05:46.333Z,13.69
2022-10-12T14:08:20.349Z,13.79
2022-10-12T14:10:49.918Z,13.83
2022-10-12T14:13:40.398Z,13.80
2022-10-12T14:16:09.743Z,13.67
2022-10-12T14:18:52.542Z,13.65
2022-10-12T14:21:31.156Z,13.63
2022-10-12T14:24:10.672Z,13.65
2022-10-12T14:26:45.258Z,13.67
2022-10-12T14:29:36.199Z,13.71
2022-10-12T14:32:08.602Z,13.77
2022-10-12T14:35:19.428Z,13.87
2022-10-12T14:38:40.062Z,13.99
2022-10-12T14:41:43.547Z,14.13
2022-10-12T14:44:16.636Z,14.26
2022-10-12T14:47:16.775Z,14.38
2022-10-12T14:49:48.035Z,14.38
2022-10-12T14:52:44.256Z,14.31
2022-10-12T14:55:30.019Z,14.20
2022-10-12T14:57:59.986Z,14.12
2022-10-12T15:00:43.009Z,14.01
2022-10-12T15:03:12.248Z,13.94
2022-10-12T15:05:41.029Z,13.91
2022-10-12T15:08:09.854Z,13.91
2022-10-12T15:10:39.223Z,13.94
2022-10-12T15:13:12.206Z,13.98
2022-10-12T15:15:45.679Z,13.99
2022-10-12T15:18:28.370Z,14.00
2022-10-12T15:21:10.809Z,13.97
2022-10-12T15:23:40.124Z,13.90
2022-10-12T15:26:17.594Z,13.81
2022-10-12T15:29:00.089Z,13.70
2022-10-12T15:31:29.160Z,13.60
2022-10-12T15:34:15.587Z,13.50
2022-10-12T15:36:44.232Z,13.40
2022-10-12T15:39:13.134Z,13.32
2022-10-12T15:41:42.173Z,13.25
2022-10-12T15:44:16.147Z,13.16
2022-10-12T15:47:00.911Z,13.07
2022-10-12T15:49:43.307Z,12.95
2022-10-12T15:52:25.594Z,12.84
2022-10-12T15:54:54.136Z,12.75
2022-10-12T15:57:37.076Z,12.63
2022-10-12T16:00:22.309Z,12.52
2022-10-12T16:02:51.082Z,12.43
2022-10-12T16:05:24.181Z,12.34
2022-10-12T16:07:53.259Z,12.24
2022-10-12T16:10:39.955Z,12.11
2022-10-12T16:13:22.469Z,11.97
2022-10-12T16:15:51.867Z,11.84
2022-10-12T16:18:20.848Z,11.72
2022-10-12T16:21:03.595Z,11.60
2022-10-12T16:23:34.631Z,11.51
2022-10-12T16:26:06.630Z,11.43
2022-10-12T16:28:36.452Z,11.35
2022-10-12T16:31:15.885Z,11.27
2022-10-12T16:33:58.445Z,11.17
2022-10-12T16:36:27.109Z,11.07
2022-10-12T16:39:09.441Z,10.96
2022-10-12T16:41:52.550Z,10.85
2022-10-12T16:44:22.871Z,10.74
2022-10-12T16:47:06.011Z,10.62
2022-10-12T16:49:34.747Z,10.50
2022-10-12T16:52:04.406Z,10.42
2022-10-12T16:54:47.616Z,10.34
2022-10-12T16:57:29.901Z,10.27
2022-10-12T16:59:59.286Z,10.22
2022-10-12T17:02:28.423Z,10.13
2022-10-12T17:04:57.033Z,10.01
2022-10-12T17:07:27.112Z,9.91
2022-10-12T17:10:09.884Z,9.79
2022-10-12T17:12:38.542Z,9.68
2022-10-12T17:15:08.525Z,9.58
2022-10-12T17:17:37.210Z,9.50
2022-10-12T17:20:07.156Z,9.47
2022-10-12T17:22:35.854Z,9.44
2022-10-12T17:25:05.198Z,9.43
2022-10-12T17:27:34.618Z,9.39
2022-10-12T17:30:03.815Z,9.37
2022-10-12T17:32:46.783Z,9.32
2022-10-12T17:35:15.623Z,9.28
2022-10-12T17:37:44.311Z,9.24
2022-10-12T17:40:13.527Z,9.19
2022-10-12T17:42:56.241Z,9.13
2022-10-12T17:45:25.006Z,9.08
2022-10-12T17:48:08.231Z,9.03
2022-10-12T17:50:50.736Z,8.98
2022-10-12T17:53:19.656Z,8.94
2022-10-12T17:56:03.549Z,8.92
2022-10-12T17:58:45.831Z,8.89
2022-10-12T18:01:16.614Z,8.86
2022-10-12T18:04:04.971Z,8.83
2022-10-12T18:06:34.778Z,8.80
2022-10-12T18:09:05.670Z,8.78
2022-10-12T18:11:35.014Z,8.74
2022-10-12T18:14:17.427Z,8.69
2022-10-12T18:16:59.793Z,8.64
2022-10-12T18:19:28.863Z,8.59
2022-10-12T18:22:11.560Z,8.53
2022-10-12T18:24:41.226Z,8.47
2022-10-12T18:27:23.581Z,8.41
2022-10-12T18:29:52.496Z,8.36
2022-10-12T18:32:21.407Z,8.30
2022-10-12T18:35:03.923Z,8.23
2022-10-12T18:37:33.105Z,8.15
2022-10-12T18:40:02.097Z,8.08
2022-10-12T18:42:44.880Z,8.01
2022-10-12T18:45:14.378Z,7.94
2022-10-12T18:47:43.161Z,7.90
2022-10-12T18:50:12.570Z,7.86
2022-10-12T18:52:43.136Z,7.83
2022-10-12T18:55:12.074Z,7.79
2022-10-12T18:57:54.687Z,7.75
2022-10-12T19:00:23.792Z,7.69
2022-10-12T19:02:52.613Z,7.63
2022-10-12T19:05:21.290Z,7.59
2022-10-12T19:08:03.668Z,7.55
2022-10-12T19:10:33.820Z,7.50
2022-10-12T19:13:02.917Z,7.43
2022-10-12T19:15:32.449Z,7.38
2022-10-12T19:18:02.801Z,7.33
2022-10-12T19:20:33.888Z,7.29
2022-10-12T19:23:04.368Z,7.24
2022-10-12T19:25:39.303Z,7.19
2022-10-12T19:28:08.920Z,7.12
2022-10-12T19:30:40.569Z,7.06
2022-10-12T19:33:24.302Z,7.02
2022-10-12T19:35:55.266Z,6.99
2022-10-12T19:38:24.995Z,6.92
2022-10-12T19:41:08.356Z,6.83
2022-10-12T19:43:38.154Z,6.79
2022-10-12T19:46:11.759Z,6.74
2022-10-12T19:48:45.449Z,6.70
2022-10-12T19:51:14.539Z,6.66
2022-10-12T19:53:45.740Z,6.62
2022-10-12T19:56:30.407Z,6.58
2022-10-12T19:59:00.632Z,6.54
2022-10-12T20:01:36.220Z,6.49
2022-10-12T20:04:09.896Z,6.43
2022-10-12T20:06:39.513Z,6.37
2022-10-12T20:09:09.536Z,6.31
2022-10-12T20:11:38.908Z,6.27
2022-10-12T20:14:21.119Z,6.24
2022-10-12T20:16:51.006Z,6.21
2022-10-12T20:19:20.163Z,6.19
2022-10-12T20:21:49.350Z,6.15
2022-10-12T20:24:18.110Z,6.10
2022-10-12T20:26:47.343Z,6.04
2022-10-12T20:29:16.267Z,5.98
2022-10-12T20:31:58.648Z,5.92
2022-10-12T20:34:27.610Z,5.87
2022-10-12T20:37:11.263Z,5.82
2022-10-12T20:39:53.583Z,5.76
2022-10-12T20:42:35.893Z,5.73
2022-10-12T20:45:05.488Z,5.68
2022-10-12T20:47:34.367Z,5.64
2022-10-12T20:50:03.349Z,5.60
2022-10-12T20:52:32.020Z,5.56
2022-10-12T20:55:14.962Z,5.50
2022-10-12T20:57:57.361Z,5.44
2022-10-12T21:00:39.832Z,5.41
2022-10-12T21:03:22.219Z,5.35
2022-10-12T21:05:51.053Z,5.30
2022-10-12T21:08:20.072Z,5.28
2022-10-12T21:11:03.664Z,5.26
2022-10-12T21:13:34.587Z,5.25
2022-10-12T21:16:03.475Z,5.24
2022-10-12T21:18:37.650Z,5.21
2022-10-12T21:21:13.999Z,5.18
2022-10-12T21:23:45.233Z,5.14
2022-10-12T21:26:18.992Z,5.08
2022-10-12T21:28:48.121Z,5.05
2022-10-12T21:31:32.942Z,5.03
2022-10-12T21:34:15.508Z,5.01
2022-10-12T21:36:44.721Z,4.97
2022-10-12T21:39:16.269Z,4.89
2022-10-12T21:41:45.128Z,4.82
2022-10-12T21:44:27.462Z,4.81
2022-10-12T21:46:56.729Z,4.79
2022-10-12T21:49:25.354Z,4.76
2022-10-12T21:51:54.277Z,4.75
2022-10-12T21:54:23.148Z,4.74
2022-10-12T21:56:51.652Z,4.73
2022-10-12T21:59:20.208Z,4.72
2022-10-12T22:01:49.279Z,4.70
2022-10-12T22:04:31.634Z,4.66
2022-10-12T22:07:01.327Z,4.64
2022-10-12T22:09:44.078Z,4.60
2022-10-12T22:12:26.552Z,4.58
2022-10-12T22:14:55.371Z,4.53
2022-10-12T22:17:39.193Z,4.49
2022-10-12T22:20:21.751Z,4.43
2022-10-12T22:23:07.852Z,4.37
2022-10-12T22:25:50.312Z,4.35
2022-10-12T22:28:19.465Z,4.35
2022-10-12T22:30:48.432Z,4.35
2022-10-12T22:33:17.876Z,4.33
2022-10-12T22:36:01.739Z,4.29
2022-10-12T22:38:44.545Z,4.26
2022-10-12T22:41:16.480Z,4.20
2022-10-12T22:43:50.713Z,4.14
2022-10-12T22:46:20.893Z,4.11
2022-10-12T22:48:49.911Z,4.09
2022-10-12T22:51:35.146Z,4.08
2022-10-12T22:54:17.679Z,4.07
2022-10-12T22:56:48.190Z,4.08
2022-10-12T22:59:30.592Z,4.13
2022-10-12T23:01:59.686Z,4.12
2022-10-12T23:04:29.246Z,4.07
2022-10-12T23:07:12.273Z,4.02
2022-10-12T23:09:54.702Z,3.96
2022-10-12T23:12:37.786Z,3.95
2022-10-12T23:15:20.273Z,3.96
2022-10-12T23:18:04.986Z,3.97
2022-10-12T23:20:47.790Z,3.98
2022-10-12T23:23:16.829Z,3.97
2022-10-12T23:25:46.349Z,3.96
2022-10-12T23:28:17.738Z,3.94
2022-10-12T23:30:46.713Z,3.87
2022-10-12T23:33:29.570Z,3.81
2022-10-12T23:36:01.558Z,3.78
2022-10-12T23:38:32.266Z,3.77
2022-10-12T23:41:02.013Z,3.75
2022-10-12T23:43:44.503Z,3.73
2022-10-12T23:46:14.322Z,3.71
2022-10-12T23:48:57.487Z,3.71
2022-10-12T23:51:39.969Z,3.69
2022-10-12T23:54:09.655Z,3.69
2022-10-12T23:56:52.654Z,3.67
2022-10-12T23:59:21.976Z,3.63
